Time;durP1;ratioP1;P1;durP2;ratioP2;P2;SDS_P1;SDS_P2;PMS_P1;PMS_P2;Temp;Humidity;BMP_temperature;BMP_pressure;BME280_temperature;BME280_humidity;BME280_pressure;Samples;Min_cycle;Max_cycle;Signal;HPM_P1;HPM_P2
2021/03/02 00:01:42;;;;;;;4.55;3.53;;;;;;;18.84;50.91;103271.28;5058930;28;20078;-75
2021/03/02 00:04:08;;;;;;;5.13;3.28;;;;;;;18.86;50.83;103273.13;5079143;28;20442;-75
2021/03/02 00:06:34;;;;;;;4.25;3.35;;;;;;;18.85;50.87;103270.44;5081813;28;20033;-75
2021/03/02 00:09:00;;;;;;;4.72;3.30;;;;;;;18.77;50.91;103261.47;5085478;28;20028;-75
2021/03/02 00:11:26;;;;;;;5.47;3.35;;;;;;;18.83;50.85;103269.50;5093644;28;20047;-75
2021/03/02 00:13:51;;;;;;;4.43;3.15;;;;;;;18.82;50.80;103273.00;5084206;28;20036;-75
2021/03/02 00:16:27;;;;;;;5.35;3.85;;;;;;;18.83;50.77;103270.41;5080133;28;20356;-74
2021/03/02 00:19:01;;;;;;;4.70;3.50;;;;;;;18.78;50.93;103260.63;5059802;28;20060;-74
2021/03/02 00:21:32;;;;;;;5.15;3.75;;;;;;;18.74;50.81;103259.63;5089714;28;20032;-74
2021/03/02 00:24:05;;;;;;;5.13;3.20;;;;;;;18.78;50.81;103263.25;5075365;28;20071;-74
2021/03/02 00:26:33;;;;;;;5.25;3.88;;;;;;;18.76;50.89;103257.06;5079367;28;20083;-74
2021/03/02 00:29:03;;;;;;;5.82;4.13;;;;;;;18.76;51.00;103262.28;5080947;28;20039;-74
2021/03/02 00:31:31;;;;;;;5.40;3.72;;;;;;;18.76;50.86;103263.19;5080518;28;20028;-73
2021/03/02 00:36:32;;;;;;;4.15;3.17;;;;;;;18.76;50.80;103263.19;5386490;22;20390;-74
2021/03/02 00:38:57;;;;;;;5.03;3.40;;;;;;;18.73;50.89;103255.22;5036521;28;20044;-74
2021/03/02 00:41:22;;;;;;;4.50;3.45;;;;;;;18.78;50.86;103264.13;5019507;28;20031;-74
2021/03/02 00:43:49;;;;;;;4.55;3.50;;;;;;;18.71;50.76;103254.28;5035432;28;20482;-74
2021/03/02 00:46:15;;;;;;;4.95;3.58;;;;;;;18.76;51.07;103271.06;5039469;28;20438;-74
2021/03/02 00:48:40;;;;;;;4.47;3.53;;;;;;;18.72;50.81;103265.66;5035490;28;20035;-74
2021/03/02 00:51:06;;;;;;;5.70;3.60;;;;;;;18.73;50.66;103268.31;5052711;28;20108;-74
2021/03/02 00:53:31;;;;;;;5.03;3.15;;;;;;;18.75;50.43;103271.00;5015328;28;20029;-74
2021/03/02 00:55:56;;;;;;;5.07;3.42;;;;;;;18.74;50.64;103271.84;5018923;28;20107;-74
2021/03/02 00:58:22;;;;;;;4.75;3.03;;;;;;;18.73;50.69;103272.66;5018922;28;20056;-74
2021/03/02 01:00:47;;;;;;;3.92;3.15;;;;;;;18.74;50.77;103277.06;5052755;28;20048;-74
2021/03/02 01:03:12;;;;;;;5.20;3.20;;;;;;;18.75;50.72;103274.50;5044610;28;20021;-74
2021/03/02 01:05:38;;;;;;;4.13;3.38;;;;;;;18.72;50.74;103271.78;5018555;28;20036;-73
2021/03/02 01:08:04;;;;;;;4.47;3.95;;;;;;;18.71;50.66;103272.63;5035040;28;20052;-74
2021/03/02 01:10:30;;;;;;;5.18;3.67;;;;;;;18.71;50.75;103271.72;5035052;28;20032;-74
2021/03/02 01:12:55;;;;;;;4.93;3.47;;;;;;;18.64;50.82;103259.28;5034592;28;20051;-74
2021/03/02 01:15:21;;;;;;;4.75;3.40;;;;;;;18.70;50.64;103267.31;5018910;28;20025;-74
2021/03/02 01:17:46;;;;;;;6.13;4.38;;;;;;;18.69;50.61;103266.47;5015683;28;20030;-73
2021/03/02 01:20:12;;;;;;;4.57;3.45;;;;;;;18.70;50.72;103264.69;5034791;28;20052;-74
2021/03/02 01:22:38;;;;;;;3.90;3.00;;;;;;;18.65;50.52;103248.84;5052586;28;20492;-74
2021/03/02 01:25:08;;;;;;;4.63;3.58;;;;;;;18.69;50.63;103249.84;5032899;28;20104;-74
2021/03/02 01:27:33;;;;;;;4.97;3.50;;;;;;;18.66;50.34;103249.75;5046870;28;20561;-74
2021/03/02 01:29:58;;;;;;;4.50;3.63;;;;;;;18.65;50.55;103246.22;5016026;28;20065;-74
2021/03/02 01:32:24;;;;;;;5.40;3.63;;;;;;;18.65;50.63;103256.72;5018966;28;20131;-74
2021/03/02 01:34:49;;;;;;;4.53;3.45;;;;;;;18.60;50.36;103242.56;5037260;28;20041;-73
2021/03/02 01:37:14;;;;;;;4.32;3.63;;;;;;;18.65;50.59;103256.72;5053401;28;20052;-74
2021/03/02 01:39:40;;;;;;;5.00;3.78;;;;;;;18.55;50.55;103231.91;5072453;28;20504;-74
2021/03/02 01:42:05;;;;;;;4.93;3.88;;;;;;;18.63;50.44;103240.03;5054417;28;20024;-73
2021/03/02 01:44:30;;;;;;;5.53;3.63;;;;;;;18.66;50.45;103244.50;5021597;28;20112;-74
2021/03/02 01:46:57;;;;;;;4.30;3.40;;;;;;;18.66;50.55;103241.88;5037730;28;20055;-74
2021/03/02 01:49:22;;;;;;;4.75;3.75;;;;;;;18.62;50.49;103243.50;5054509;28;20123;-74
2021/03/02 01:51:48;;;;;;;5.03;3.05;;;;;;;18.60;50.39;103234.69;5054556;28;20112;-74
2021/03/02 01:54:15;;;;;;;4.30;3.53;;;;;;;18.56;50.62;103228.41;5038029;28;20028;-74
2021/03/02 01:56:41;;;;;;;4.50;3.85;;;;;;;18.59;50.43;103235.53;5037016;28;20058;-74
2021/03/02 01:59:07;;;;;;;4.38;3.35;;;;;;;18.62;50.47;103237.38;5071707;28;20037;-74
2021/03/02 02:01:34;;;;;;;6.00;4.07;;;;;;;18.57;50.50;103226.69;5072889;28;20024;-74
2021/03/02 02:04:07;;;;;;;4.60;3.38;;;;;;;18.61;50.46;103233.84;5048739;28;20047;-74
2021/03/02 02:06:56;;;;;;;4.57;3.47;;;;;;;18.61;50.33;103236.47;5076218;28;20031;-74
2021/03/02 02:09:46;;;;;;;6.15;3.47;;;;;;;18.61;50.30;103232.97;5075841;28;20032;-74
2021/03/02 02:12:30;;;;;;;6.43;3.95;;;;;;;18.60;50.39;103228.56;5049778;28;20497;-74
2021/03/02 02:15:10;;;;;;;5.22;3.70;;;;;;;18.55;50.29;103218.81;5058493;28;20032;-74
2021/03/02 02:17:49;;;;;;;5.43;3.97;;;;;;;18.60;50.35;103224.22;5071250;28;20028;-74
2021/03/02 02:20:36;;;;;;;4.72;3.88;;;;;;;18.60;50.39;103223.31;5058339;28;20040;-74
2021/03/02 02:23:10;;;;;;;5.72;3.85;;;;;;;18.58;50.17;103228.50;5075882;28;20091;-74
2021/03/02 02:26:01;;;;;;;4.55;3.72;;;;;;;18.56;50.34;103217.94;5074191;28;20020;-74
2021/03/02 02:28:27;;;;;;;4.10;3.17;;;;;;;18.53;50.47;103214.34;5061324;28;20449;-74
2021/03/02 02:30:56;;;;;;;5.72;3.35;;;;;;;18.50;50.31;103207.28;5041926;28;20403;-74
2021/03/02 02:33:25;;;;;;;5.40;4.00;;;;;;;18.48;50.37;103200.19;5065484;28;20079;-74
2021/03/02 02:35:52;;;;;;;5.03;3.47;;;;;;;18.56;50.74;103209.22;5074789;28;20049;-74
2021/03/02 02:38:19;;;;;;;5.38;4.35;;;;;;;18.53;50.36;103210.00;5040757;28;20025;-74
2021/03/02 02:40:46;;;;;;;4.70;3.35;;;;;;;18.52;50.42;103207.31;5057730;28;20033;-74
2021/03/02 02:43:12;;;;;;;4.78;3.92;;;;;;;18.54;50.32;103205.66;5074192;28;20496;-74
2021/03/02 02:45:38;;;;;;;5.32;4.07;;;;;;;18.52;50.05;103202.09;5058044;28;20036;-74
2021/03/02 02:48:05;;;;;;;4.80;3.90;;;;;;;18.48;50.21;103192.34;5075329;28;20114;-74
2021/03/02 02:50:31;;;;;;;4.95;3.72;;;;;;;18.53;50.34;103207.38;5057916;28;20032;-74
2021/03/02 02:52:58;;;;;;;4.90;3.95;;;;;;;18.52;50.18;103197.75;5074378;28;20162;-74
2021/03/02 02:55:33;;;;;;;5.20;3.95;;;;;;;18.54;49.90;103205.66;5074999;28;20032;-74
2021/03/02 02:57:59;;;;;;;5.60;3.88;;;;;;;18.47;50.18;103194.06;5053566;28;20024;-74
2021/03/02 03:00:26;;;;;;;5.25;3.88;;;;;;;18.43;50.12;103184.34;5075693;28;20029;-73
2021/03/02 03:02:54;;;;;;;4.95;4.38;;;;;;;18.49;50.30;103199.38;5057221;28;20021;-75
2021/03/02 03:05:26;;;;;;;4.22;3.83;;;;;;;18.46;50.17;103202.75;5052885;28;20033;-75
2021/03/02 03:08:16;;;;;;;4.75;3.67;;;;;;;18.51;50.01;103205.53;5070536;28;20028;-75
2021/03/02 03:10:43;;;;;;;4.95;3.38;;;;;;;18.48;50.13;103202.81;5063307;28;20053;-75
2021/03/02 03:13:13;;;;;;;4.80;3.72;;;;;;;18.48;49.87;103208.94;5057422;28;20078;-75
2021/03/02 03:15:45;;;;;;;6.47;4.03;;;;;;;18.39;50.18;103195.56;5074759;28;20102;-75
2021/03/02 03:18:12;;;;;;;4.50;3.97;;;;;;;18.45;50.21;103197.47;5058229;28;20032;-75
2021/03/02 03:20:38;;;;;;;5.95;3.70;;;;;;;18.45;50.14;103198.38;5075241;28;20474;-75
2021/03/02 03:23:05;;;;;;;7.05;4.88;;;;;;;18.49;50.29;103207.22;5056997;28;20090;-75
2021/03/02 03:25:32;;;;;;;4.93;4.07;;;;;;;18.45;50.00;103197.47;5060614;28;20035;-75
2021/03/02 03:28:01;;;;;;;5.13;4.57;;;;;;;18.46;50.21;103204.50;5057254;28;20041;-75
2021/03/02 03:30:30;;;;;;;6.65;4.28;;;;;;;18.45;50.06;103208.84;5057157;28;20021;-75
2021/03/02 03:33:02;;;;;;;4.68;3.97;;;;;;;18.45;50.15;103210.56;5056583;28;20027;-75
2021/03/02 03:35:29;;;;;;;4.45;3.78;;;;;;;18.45;50.26;103211.47;5074221;28;20024;-75
2021/03/02 03:37:54;;;;;;;6.55;4.10;;;;;;;18.44;50.23;103214.03;5073172;28;20111;-75
2021/03/02 03:40:21;;;;;;;5.78;4.63;;;;;;;18.44;49.89;103209.69;5075000;28;20055;-76
2021/03/02 03:42:46;;;;;;;6.32;3.88;;;;;;;18.44;50.02;103214.03;5074860;28;20119;-75
2021/03/02 03:45:12;;;;;;;6.35;4.90;;;;;;;18.40;50.05;103214.78;5047929;28;20060;-75
2021/03/02 03:47:38;;;;;;;5.47;4.13;;;;;;;18.42;50.24;103219.25;5056282;28;20489;-75
2021/03/02 03:50:05;;;;;;;7.63;4.95;;;;;;;18.42;50.03;103215.75;5056343;28;20059;-75
2021/03/02 03:52:33;;;;;;;5.35;4.13;;;;;;;18.43;50.04;103217.53;5056058;28;20029;-75
2021/03/02 03:55:00;;;;;;;7.10;4.60;;;;;;;18.42;49.98;103218.34;5074312;28;20025;-76
2021/03/02 03:57:26;;;;;;;6.82;4.97;;;;;;;18.40;50.24;103215.69;5058939;28;20064;-76
2021/03/02 03:59:52;;;;;;;6.57;4.13;;;;;;;18.36;49.84;103210.28;5075039;28;20029;-76
2021/03/02 04:02:19;;;;;;;4.95;4.40;;;;;;;18.38;49.72;103211.22;5073151;28;20502;-75
2021/03/02 04:04:46;;;;;;;5.05;4.05;;;;;;;18.36;49.80;103208.56;5046046;28;20036;-75
2021/03/02 04:07:12;;;;;;;5.65;3.83;;;;;;;18.40;49.82;103214.78;5073798;28;20032;-74
2021/03/02 04:09:39;;;;;;;4.65;4.15;;;;;;;18.37;49.96;103209.44;5044261;28;20037;-75
2021/03/02 04:12:05;;;;;;;6.57;5.30;;;;;;;18.39;49.91;103210.38;5046758;28;20389;-76
2021/03/02 04:14:32;;;;;;;6.63;4.78;;;;;;;18.32;49.81;103195.28;5056579;28;20039;-76
2021/03/02 04:16:58;;;;;;;7.55;4.85;;;;;;;18.37;49.99;103209.44;5074205;28;20108;-76
2021/03/02 04:19:23;;;;;;;4.82;4.30;;;;;;;18.37;50.03;103205.09;5038750;28;20074;-76
2021/03/02 04:21:48;;;;;;;4.50;3.70;;;;;;;18.36;49.94;103195.44;5073961;28;20039;-76
2021/03/02 04:24:14;;;;;;;5.85;4.97;;;;;;;18.36;49.99;103202.41;5038189;28;20116;-76
2021/03/02 04:26:39;;;;;;;5.90;4.68;;;;;;;18.36;49.91;103198.06;5048292;28;20044;-76
2021/03/02 04:29:04;;;;;;;6.57;5.10;;;;;;;18.32;49.91;103195.28;5056662;28;20024;-75
2021/03/02 04:31:31;;;;;;;5.28;4.35;;;;;;;18.35;49.69;103200.63;5038964;28;20579;-75
2021/03/02 04:33:56;;;;;;;5.25;3.95;;;;;;;18.31;49.68;103191.78;5036250;28;20029;-76
2021/03/02 04:36:21;;;;;;;4.90;4.03;;;;;;;18.31;49.77;103193.50;5034460;28;20067;-76
2021/03/02 04:38:47;;;;;;;5.63;4.78;;;;;;;18.32;49.91;103190.06;5055222;28;20040;-76
2021/03/02 04:41:12;;;;;;;5.22;4.68;;;;;;;18.33;49.88;103197.06;5039104;28;20039;-76
2021/03/02 04:43:38;;;;;;;5.82;4.72;;;;;;;18.33;49.84;103197.97;5073147;28;20124;-75
2021/03/02 04:46:03;;;;;;;5.50;4.50;;;;;;;18.28;49.69;103183.84;5055494;28;20059;-76
2021/03/02 04:48:29;;;;;;;6.53;4.95;;;;;;;18.30;49.88;103189.13;5022282;28;20035;-76
2021/03/02 04:50:54;;;;;;;6.82;4.57;;;;;;;18.32;49.97;103197.91;5072124;28;20043;-76
2021/03/02 04:53:19;;;;;;;6.13;5.20;;;;;;;18.28;49.78;103196.94;5072650;28;20032;-76
2021/03/02 04:55:45;;;;;;;5.30;4.20;;;;;;;18.31;49.70;103198.75;5055313;28;20123;-76
2021/03/02 04:58:10;;;;;;;7.70;4.72;;;;;;;18.31;49.79;103198.75;5072303;28;20028;-76
2021/03/02 05:00:35;;;;;;;6.53;4.60;;;;;;;18.30;49.81;103197.88;5050574;28;20474;-76
2021/03/02 05:03:01;;;;;;;5.50;4.70;;;;;;;18.27;49.61;103186.41;5073120;28;20047;-76
2021/03/02 05:05:26;;;;;;;6.20;4.95;;;;;;;18.29;49.67;103195.22;5054899;28;20038;-76
2021/03/02 05:07:51;;;;;;;7.15;5.32;;;;;;;18.28;49.69;103191.69;5060712;28;20174;-76
2021/03/02 05:10:17;;;;;;;6.78;5.28;;;;;;;18.23;49.61;103184.53;5038543;28;20041;-76
2021/03/02 05:12:42;;;;;;;5.20;4.07;;;;;;;18.28;49.62;103186.47;5038270;28;20021;-75
2021/03/02 05:15:08;;;;;;;6.43;4.25;;;;;;;18.38;49.54;103195.50;5072729;28;20024;-75
2021/03/02 05:17:33;;;;;;;6.93;5.30;;;;;;;18.43;49.26;103194.84;5054950;28;20436;-75
2021/03/02 05:19:59;;;;;;;4.95;4.22;;;;;;;18.39;49.39;103190.31;5055208;28;20405;-75
2021/03/02 05:22:24;;;;;;;5.60;4.57;;;;;;;18.41;49.42;103188.66;5054758;28;20078;-75
2021/03/02 05:24:50;;;;;;;5.72;4.68;;;;;;;18.45;49.41;103184.38;5072459;28;20406;-76
2021/03/02 05:27:15;;;;;;;5.40;4.22;;;;;;;18.50;49.31;103180.19;5038431;28;20389;-75
2021/03/02 05:29:40;;;;;;;5.03;4.28;;;;;;;18.51;49.37;103184.59;5056274;28;20505;-75
2021/03/02 05:32:06;;;;;;;5.10;4.05;;;;;;;18.51;49.61;103180.22;5038316;28;20036;-75
2021/03/02 05:34:31;;;;;;;5.18;4.68;;;;;;;18.55;49.36;103176.00;5071498;28;20106;-75
2021/03/02 05:36:57;;;;;;;6.93;4.50;;;;;;;18.60;49.26;103186.63;5072638;28;20058;-75
2021/03/02 05:39:22;;;;;;;4.95;4.32;;;;;;;18.51;49.26;103174.09;5054126;28;20067;-75
2021/03/02 05:41:48;;;;;;;4.47;3.83;;;;;;;18.54;49.41;103176.84;5034812;28;20489;-75
2021/03/02 05:44:14;;;;;;;5.03;3.72;;;;;;;18.59;49.37;103179.59;5018343;28;20085;-75
2021/03/02 05:46:41;;;;;;;5.38;4.32;;;;;;;18.58;49.25;103176.09;5053394;28;20020;-75
2021/03/02 05:49:12;;;;;;;7.07;4.93;;;;;;;18.62;49.31;103198.06;5072459;28;20056;-75
2021/03/02 05:51:40;;;;;;;4.88;4.13;;;;;;;18.65;49.33;103198.16;5053219;28;20414;-75
2021/03/02 05:54:07;;;;;;;6.18;4.95;;;;;;;18.69;49.43;103197.44;5069031;28;20025;-76
2021/03/02 05:56:36;;;;;;;5.60;4.60;;;;;;;18.60;49.27;103179.66;5055399;28;20027;-76
2021/03/02 05:59:02;;;;;;;6.28;4.50;;;;;;;18.64;49.50;103180.66;5054342;28;20036;-75
2021/03/02 06:01:28;;;;;;;7.80;4.22;;;;;;;18.73;49.34;103176.59;5037324;28;20040;-75
2021/03/02 06:03:53;;;;;;;5.20;4.18;;;;;;;18.84;49.02;103182.16;5034770;28;20396;-73
2021/03/02 06:06:18;;;;;;;5.50;3.70;;;;;;;18.81;48.89;103182.97;5037800;28;20119;-74
2021/03/02 06:08:44;;;;;;;4.97;3.85;;;;;;;18.82;49.23;103187.38;5054710;28;20036;-74
2021/03/02 06:11:37;;;;;;;6.25;3.55;;;;;;;18.87;49.20;103182.25;5054333;28;20028;-74
2021/03/02 06:14:17;;;;;;;3.88;2.97;;;;;;;18.88;49.08;103182.31;5058617;28;20350;-74
2021/03/02 06:16:48;;;;;;;9.27;5.57;;;;;;;18.73;48.21;103170.44;5054343;28;20375;-73
2021/03/02 06:19:14;;;;;;;10.85;6.55;;;;;;;18.76;48.60;103184.53;5071050;28;20036;-74
2021/03/02 06:21:40;;;;;;;7.95;5.38;;;;;;;18.80;48.77;103188.16;5072082;28;20054;-74
2021/03/02 06:24:06;;;;;;;9.95;6.43;;;;;;;18.73;48.45;103181.81;5062140;28;20062;-74
2021/03/02 06:26:31;;;;;;;14.38;6.68;;;;;;;18.76;48.70;103187.16;5054102;28;20044;-74
2021/03/02 06:28:58;;;;;;;11.25;6.03;;;;;;;18.83;48.78;103181.25;5054354;28;20105;-74
2021/03/02 06:31:41;;;;;;;11.82;6.82;;;;;;;18.89;48.45;103184.09;5070580;28;20020;-74
2021/03/02 06:34:09;;;;;;;12.00;7.13;;;;;;;18.87;48.06;103185.75;5071620;28;20135;-76
2021/03/02 06:36:35;;;;;;;12.07;6.75;;;;;;;18.84;48.52;103174.28;5071434;28;20068;-74
2021/03/02 06:39:30;;;;;;;13.13;6.18;;;;;;;18.94;48.51;103186.84;5054270;28;20066;-75
2021/03/02 06:42:19;;;;;;;12.63;6.15;;;;;;;18.89;48.71;103186.69;5072123;28;20104;-74
2021/03/02 06:44:47;;;;;;;9.05;5.65;;;;;;;18.89;48.85;103189.31;5060745;28;20042;-74
2021/03/02 06:47:36;;;;;;;7.03;5.93;;;;;;;18.97;48.70;103192.16;5070810;28;20113;-74
2021/03/02 06:50:20;;;;;;;7.93;6.18;;;;;;;18.97;48.68;103188.66;5073013;28;20024;-74
2021/03/02 06:52:46;;;;;;;11.48;6.15;;;;;;;18.93;48.88;103190.31;5075715;28;20116;-73
2021/03/02 06:55:26;;;;;;;12.23;5.80;;;;;;;18.98;48.82;103199.19;5057448;28;20115;-73
2021/03/02 06:57:51;;;;;;;6.57;5.10;;;;;;;19.03;48.63;103194.09;5049680;28;20437;-73
2021/03/02 07:00:33;;;;;;;11.38;5.28;;;;;;;18.94;48.63;103188.59;5057627;28;20024;-73
2021/03/02 07:02:58;;;;;;;7.45;5.07;;;;;;;18.97;48.93;103193.91;5066773;28;20033;-75
2021/03/02 07:05:24;;;;;;;6.10;5.25;;;;;;;19.03;48.77;103199.34;5048349;28;20033;-74
2021/03/02 07:07:56;;;;;;;9.05;5.35;;;;;;;19.03;48.65;103196.72;5028641;28;20037;-75
2021/03/02 07:10:23;;;;;;;10.38;6.18;;;;;;;18.98;48.69;103193.94;5045340;28;20398;-75
2021/03/02 07:12:51;;;;;;;7.82;5.35;;;;;;;19.02;48.91;103197.56;5048558;28;20580;-75
2021/03/02 07:15:17;;;;;;;8.93;5.60;;;;;;;19.05;48.65;103198.56;5064259;28;20032;-76
2021/03/02 07:17:44;;;;;;;8.43;4.95;;;;;;;18.97;48.68;103180.78;5057545;28;20386;-76
2021/03/02 07:20:12;;;;;;;6.68;5.05;;;;;;;19.00;48.84;103200.13;5075056;28;20078;-75
2021/03/02 07:22:43;;;;;;;6.78;4.35;;;;;;;19.07;48.67;103198.59;5057101;28;20025;-75
2021/03/02 07:25:10;;;;;;;6.60;4.88;;;;;;;19.05;48.59;103201.19;5059220;28;20017;-74
2021/03/02 07:27:48;;;;;;;4.97;3.88;;;;;;;19.02;48.64;103208.06;5056620;28;20020;-74
2021/03/02 07:30:14;;;;;;;7.47;5.38;;;;;;;19.07;48.73;103211.72;5062606;28;20042;-73
2021/03/02 07:32:40;;;;;;;6.40;4.30;;;;;;;19.12;48.53;103207.47;5074775;28;20477;-73
2021/03/02 07:35:11;;;;;;;6.25;4.60;;;;;;;19.19;48.49;103212.06;5072173;28;20086;-73
2021/03/02 07:37:36;;;;;;;7.80;4.60;;;;;;;19.16;48.31;103202.38;5056463;28;20064;-73
2021/03/02 07:40:08;;;;;;;6.05;4.47;;;;;;;19.13;48.30;103214.50;5074843;28;20109;-73
2021/03/02 07:42:34;;;;;;;5.88;4.32;;;;;;;19.15;48.20;103212.81;5074484;28;20035;-75
2021/03/02 07:45:09;;;;;;;7.50;4.72;;;;;;;19.21;48.04;103221.75;5074424;28;20054;-74
2021/03/02 07:47:48;;;;;;;8.35;4.93;;;;;;;19.17;48.01;103208.50;5055740;28;20355;-73
2021/03/02 07:50:33;;;;;;;9.57;5.55;;;;;;;19.15;48.23;103213.72;5064014;28;20029;-74
2021/03/02 07:53:16;;;;;;;8.40;5.13;;;;;;;19.21;48.32;103220.88;5071654;28;20457;-73
2021/03/02 07:55:42;;;;;;;5.93;4.32;;;;;;;19.17;48.22;103225.16;5070730;28;20104;-73
2021/03/02 07:58:21;;;;;;;7.72;5.25;;;;;;;19.16;48.26;103214.59;5055559;28;20542;-73
2021/03/02 08:00:47;;;;;;;6.88;4.97;;;;;;;19.21;48.40;103232.25;5073216;28;20036;-73
2021/03/02 08:03:26;;;;;;;6.88;4.47;;;;;;;19.21;48.16;103231.38;5073158;28;20020;-73
2021/03/02 08:05:53;;;;;;;7.57;5.05;;;;;;;19.16;48.44;103227.72;5072393;28;20028;-73
2021/03/02 08:08:24;;;;;;;6.95;4.82;;;;;;;19.20;48.41;103240.09;5073937;28;20039;-72
2021/03/02 08:10:50;;;;;;;5.55;4.57;;;;;;;19.22;48.21;103233.13;5073804;28;20021;-73
2021/03/02 08:13:34;;;;;;;9.25;5.20;;;;;;;19.19;48.27;103231.34;5070293;28;20715;-73
2021/03/02 08:16:01;;;;;;;6.60;4.78;;;;;;;19.13;48.20;103223.25;5073040;28;20052;-72
2021/03/02 08:18:45;;;;;;;8.40;4.63;;;;;;;19.20;48.28;103229.59;5054044;28;20081;-73
2021/03/02 08:21:12;;;;;;;7.38;5.63;;;;;;;19.21;48.08;103241.88;5064034;28;20049;-73
2021/03/02 08:23:57;;;;;;;5.45;4.35;;;;;;;19.17;48.34;103235.63;5073724;28;20040;-73
2021/03/02 08:26:32;;;;;;;8.25;5.13;;;;;;;19.24;48.25;103237.59;5030549;28;20037;-73
2021/03/02 08:29:07;;;;;;;6.82;4.53;;;;;;;19.23;48.07;103229.66;5073654;28;20028;-73
2021/03/02 08:31:33;;;;;;;5.63;3.97;;;;;;;19.18;48.33;103226.94;5073485;28;20389;-73
2021/03/02 08:34:00;;;;;;;7.57;5.03;;;;;;;19.29;48.20;103229.84;5069758;28;20428;-74
2021/03/02 08:36:26;;;;;;;4.45;3.65;;;;;;;19.29;47.92;103222.00;5071795;28;20059;-72
2021/03/02 08:38:52;;;;;;;7.88;5.20;;;;;;;19.35;48.07;103229.13;5055298;28;20386;-73
2021/03/02 08:41:34;;;;;;;5.38;4.50;;;;;;;19.36;48.12;103226.56;5066425;28;20036;-73
2021/03/02 08:44:00;;;;;;;4.10;3.60;;;;;;;19.37;48.12;103230.06;5070447;28;20115;-73
2021/03/02 08:46:34;;;;;;;7.18;4.88;;;;;;;19.41;48.30;103226.69;5073417;28;20024;-73
2021/03/02 08:49:08;;;;;;;;;;;;;;;19.45;47.88;103226.84;5073656;28;20024;-73
2021/03/02 08:51:34;;;;;;;6.13;4.32;;;;;;;19.37;48.19;103217.84;5072120;28;19995;-73
2021/03/02 08:54:00;;;;;;;5.97;4.00;;;;;;;19.41;48.21;103224.97;5072932;28;20509;-72
2021/03/02 08:56:25;;;;;;;6.38;4.22;;;;;;;19.46;48.03;103223.38;5037435;28;20033;-73
2021/03/02 08:58:53;;;;;;;6.28;4.45;;;;;;;19.51;47.84;103227.03;5037850;28;20167;-73
2021/03/02 09:01:21;;;;;;;5.38;3.63;;;;;;;19.49;47.97;103226.09;5070776;28;20717;-73
2021/03/02 09:03:47;;;;;;;4.60;3.50;;;;;;;19.54;48.05;103221.88;5068905;28;20082;-74
2021/03/02 09:06:20;;;;;;;5.35;4.25;;;;;;;19.55;47.81;103226.28;5050162;28;20028;-74
2021/03/02 09:08:45;;;;;;;6.68;4.38;;;;;;;19.53;48.02;103222.72;5069186;28;20130;-74
2021/03/02 09:11:12;;;;;;;6.25;4.28;;;;;;;19.46;47.99;103212.88;5062967;28;20056;-74
2021/03/02 09:13:39;;;;;;;6.68;4.75;;;;;;;19.54;48.00;103219.25;5050663;28;20071;-74
2021/03/02 09:16:30;;;;;;;5.88;4.25;;;;;;;19.58;48.11;103217.63;5051469;28;20021;-74
2021/03/02 09:19:07;;;;;;;5.57;4.57;;;;;;;19.46;47.90;103212.88;5050425;28;20029;-74
2021/03/02 09:21:34;;;;;;;5.75;3.90;;;;;;;19.48;48.02;103226.91;5048023;28;20031;-74
2021/03/02 09:24:00;;;;;;;4.72;3.58;;;;;;;19.43;48.16;103219.78;5065781;28;20096;-72
2021/03/02 09:26:27;;;;;;;4.65;3.83;;;;;;;19.46;48.14;103222.50;5053185;28;20481;-74
2021/03/02 09:28:58;;;;;;;6.15;4.30;;;;;;;19.44;48.31;103219.81;5053160;28;20028;-74
2021/03/02 09:31:25;;;;;;;5.68;4.03;;;;;;;19.38;48.39;103219.63;5049774;28;20095;-74
2021/03/02 09:33:51;;;;;;;5.75;4.20;;;;;;;19.38;48.76;103219.63;5069051;28;20059;-74
2021/03/02 09:36:18;;;;;;;4.43;3.38;;;;;;;19.39;48.56;103223.13;5053197;28;20183;-74
2021/03/02 09:38:44;;;;;;;6.78;4.18;;;;;;;19.34;48.81;103217.78;5060191;28;20032;-74
2021/03/02 09:41:09;;;;;;;6.10;4.28;;;;;;;19.38;48.60;103219.63;5049641;28;20029;-74
2021/03/02 09:43:39;;;;;;;7.20;4.30;;;;;;;19.37;48.96;103222.19;5070963;28;20431;-74
2021/03/02 09:46:06;;;;;;;6.43;3.90;;;;;;;19.36;49.23;103212.56;5065886;28;20450;-74
2021/03/02 09:48:48;;;;;;;6.18;4.28;;;;;;;19.30;49.55;103205.41;5047811;28;20040;-74
2021/03/02 09:51:33;;;;;;;5.20;4.13;;;;;;;19.33;49.51;103207.25;5071454;28;20081;-75
2021/03/02 09:54:16;;;;;;;4.53;3.63;;;;;;;19.32;49.65;103203.72;5070968;28;20078;-74
2021/03/02 09:56:46;;;;;;;9.70;4.85;;;;;;;19.28;49.42;103204.47;5068394;28;20146;-74
2021/03/02 09:59:20;;;;;;;4.75;3.80;;;;;;;19.30;49.95;103207.13;5048058;28;20040;-75
2021/03/02 10:01:45;;;;;;;5.65;4.25;;;;;;;19.26;49.83;103203.53;5069763;28;20028;-74
2021/03/02 10:04:11;;;;;;;5.60;4.00;;;;;;;19.28;49.82;103204.47;5051674;28;20503;-74
2021/03/02 10:06:37;;;;;;;6.20;4.18;;;;;;;19.24;49.97;103202.59;5071573;28;20024;-74
2021/03/02 10:09:02;;;;;;;5.93;4.15;;;;;;;19.26;49.96;103208.78;5052314;28;20055;-74
2021/03/02 10:11:29;;;;;;;5.35;3.83;;;;;;;19.23;49.79;103198.19;5049036;28;20024;-74
2021/03/02 10:14:05;;;;;;;5.95;4.03;;;;;;;19.22;49.98;103194.66;5037043;28;20033;-74
2021/03/02 10:16:35;;;;;;;4.70;3.83;;;;;;;19.20;50.39;103192.88;5070107;28;20037;-74
2021/03/02 10:19:00;;;;;;;4.97;4.03;;;;;;;19.22;49.73;103202.53;5061544;28;20028;-74
2021/03/02 10:21:46;;;;;;;5.20;3.97;;;;;;;19.21;50.16;103192.03;5052306;28;20035;-74
2021/03/02 10:24:27;;;;;;;4.65;3.63;;;;;;;19.20;50.20;103199.00;5067908;28;20035;-74
2021/03/02 10:26:58;;;;;;;4.45;3.53;;;;;;;19.21;50.30;103205.16;5056505;28;20028;-73
2021/03/02 10:29:24;;;;;;;5.93;4.45;;;;;;;19.21;50.54;103205.16;5057279;28;20037;-74
2021/03/02 10:31:50;;;;;;;4.45;3.92;;;;;;;19.16;50.61;103185.75;5074981;28;20470;-74
2021/03/02 10:34:17;;;;;;;4.82;3.45;;;;;;;19.20;50.35;103192.88;5037052;28;20032;-74
2021/03/02 10:36:43;;;;;;;4.70;3.55;;;;;;;19.15;50.34;103192.72;5055005;28;20129;-74
2021/03/02 10:39:14;;;;;;;6.38;3.60;;;;;;;19.21;49.83;103184.16;5043878;28;20029;-74
2021/03/02 10:41:41;;;;;;;4.25;3.45;;;;;;;19.36;49.71;103192.44;5073772;28;20078;-74
2021/03/02 10:44:07;;;;;;;5.07;3.67;;;;;;;19.37;49.61;103194.22;5069195;28;20027;-74
2021/03/02 10:46:33;;;;;;;4.22;3.47;;;;;;;19.33;49.64;103189.75;5071350;28;20475;-74
2021/03/02 10:48:59;;;;;;;4.53;3.55;;;;;;;19.38;49.46;103188.13;5057012;28;20085;-74
2021/03/02 10:51:26;;;;;;;7.63;3.85;;;;;;;19.44;49.45;103185.69;5054712;28;20711;-74
2021/03/02 10:53:51;;;;;;;4.50;3.83;;;;;;;19.45;49.58;103182.25;5073715;28;20060;-74
2021/03/02 10:56:18;;;;;;;4.47;3.50;;;;;;;19.50;49.55;103187.63;5067896;28;20059;-77
2021/03/02 10:58:44;;;;;;;5.95;3.75;;;;;;;19.54;49.39;103184.25;5054904;28;20020;-77
2021/03/02 11:01:10;;;;;;;3.67;3.15;;;;;;;19.60;49.52;103190.53;5038461;28;20060;-77
2021/03/02 11:03:36;;;;;;;3.83;3.33;;;;;;;19.54;49.64;103176.38;5072164;28;20028;-77
2021/03/02 11:06:02;;;;;;;4.78;3.83;;;;;;;19.64;49.38;103186.28;5055028;28;20055;-78
2021/03/02 11:08:27;;;;;;;3.67;2.95;;;;;;;19.68;49.75;103187.25;5073444;28;20032;-78
2021/03/02 11:10:53;;;;;;;3.80;3.10;;;;;;;19.68;49.79;103189.88;5042758;28;20486;-74
2021/03/02 11:13:19;;;;;;;5.40;3.40;;;;;;;19.71;49.66;103185.63;5074604;28;20024;-74
2021/03/02 11:15:45;;;;;;;4.22;3.42;;;;;;;19.73;49.61;103185.66;5069370;28;20028;-74
2021/03/02 11:18:11;;;;;;;3.75;3.08;;;;;;;19.76;49.60;103194.47;5055064;28;20058;-74
2021/03/02 11:20:37;;;;;;;5.53;3.45;;;;;;;19.72;49.68;103181.25;5070286;28;20028;-74
2021/03/02 11:23:04;;;;;;;3.72;3.10;;;;;;;19.80;49.87;103187.59;5053775;28;20027;-74
2021/03/02 11:25:29;;;;;;;3.78;3.15;;;;;;;19.80;49.56;103182.34;5053926;28;20036;-73
2021/03/02 11:27:55;;;;;;;5.65;2.88;;;;;;;19.76;50.09;103172.59;5054378;28;20193;-74
2021/03/02 11:30:21;;;;;;;4.82;3.42;;;;;;;19.78;50.01;103179.66;5052075;28;20056;-74
2021/03/02 11:32:46;;;;;;;3.28;2.90;;;;;;;19.76;50.12;103173.47;5054405;28;20053;-74
2021/03/02 11:35:13;;;;;;;3.65;3.03;;;;;;;19.62;50.28;103148.59;5052564;28;20027;-74